sensor_id;sensor_type;location;lat;lon;timestamp;pressure;altitude;pressure_sealevel;temperature;humidity
10832;BME280;5469;48.574;8.768;2023-01-27T00:01:40;94937.28;;;0.21;75.53
10832;BME280;5469;48.574;8.768;2023-01-27T00:04:14;94934.84;;;0.26;75.87
10832;BME280;5469;48.574;8.768;2023-01-27T00:06:47;94933.84;;;0.20;76.07
10832;BME280;5469;48.574;8.768;2023-01-27T00:09:20;94944.91;;;0.16;76.43
10832;BME280;5469;48.574;8.768;2023-01-27T00:11:55;94941.66;;;0.27;76.86
10832;BME280;5469;48.574;8.768;2023-01-27T00:14:47;94932.25;;;0.26;76.52
10832;BME280;5469;48.574;8.768;2023-01-27T00:17:20;94933.84;;;0.27;76.54
10832;BME280;5469;48.574;8.768;2023-01-27T00:19:54;94935.66;;;0.20;75.93
10832;BME280;5469;48.574;8.768;2023-01-27T00:22:27;94932.84;;;0.15;76.19
10832;BME280;5469;48.574;8.768;2023-01-27T00:25:17;94937.03;;;0.22;76.13
10832;BME280;5469;48.574;8.768;2023-01-27T00:27:51;94921.81;;;0.26;77.22
10832;BME280;5469;48.574;8.768;2023-01-27T00:30:25;94924.88;;;-0.04;75.72
10832;BME280;5469;48.574;8.768;2023-01-27T00:32:59;94935.75;;;-0.33;77.38
10832;BME280;5469;48.574;8.768;2023-01-27T00:35:55;94932.50;;;-0.09;75.75
10832;BME280;5469;48.574;8.768;2023-01-27T00:38:30;94937.88;;;0.10;76.57
10832;BME280;5469;48.574;8.768;2023-01-27T00:41:03;94930.47;;;0.13;75.51
10832;BME280;5469;48.574;8.768;2023-01-27T00:43:52;94935.06;;;0.18;75.97
10832;BME280;5469;48.574;8.768;2023-01-27T00:46:27;94929.84;;;0.18;76.03
10832;BME280;5469;48.574;8.768;2023-01-27T00:49:00;94931.88;;;0.16;76.41
10832;BME280;5469;48.574;8.768;2023-01-27T00:51:34;94927.41;;;0.23;76.17
10832;BME280;5469;48.574;8.768;2023-01-27T00:54:07;94929.09;;;-0.03;77.59
10832;BME280;5469;48.574;8.768;2023-01-27T00:56:41;94938.50;;;-0.02;76.73
10832;BME280;5469;48.574;8.768;2023-01-27T00:59:16;94927.88;;;0.07;76.86
10832;BME280;5469;48.574;8.768;2023-01-27T01:01:51;94931.06;;;0.09;76.56
10832;BME280;5469;48.574;8.768;2023-01-27T01:04:24;94927.03;;;0.13;75.52
10832;BME280;5469;48.574;8.768;2023-01-27T01:06:57;94929.91;;;-0.09;76.00
10832;BME280;5469;48.574;8.768;2023-01-27T01:09:31;94924.28;;;-0.06;76.23
10832;BME280;5469;48.574;8.768;2023-01-27T01:12:04;94926.06;;;0.07;76.95
10832;BME280;5469;48.574;8.768;2023-01-27T01:14:38;94936.50;;;0.01;76.26
10832;BME280;5469;48.574;8.768;2023-01-27T01:17:13;94930.31;;;-0.12;77.42
10832;BME280;5469;48.574;8.768;2023-01-27T01:19:46;94946.94;;;-0.26;76.41
10832;BME280;5469;48.574;8.768;2023-01-27T01:22:20;94940.72;;;-0.12;77.30
10832;BME280;5469;48.574;8.768;2023-01-27T01:24:53;94939.13;;;0.01;76.57
10832;BME280;5469;48.574;8.768;2023-01-27T01:27:26;94934.31;;;-0.16;77.17
10832;BME280;5469;48.574;8.768;2023-01-27T01:30:00;94939.34;;;-0.08;76.42
10832;BME280;5469;48.574;8.768;2023-01-27T01:32:35;94940.31;;;-0.09;76.99
10832;BME280;5469;48.574;8.768;2023-01-27T01:35:08;94937.13;;;-0.11;76.52
10832;BME280;5469;48.574;8.768;2023-01-27T01:37:42;94932.69;;;-0.04;76.54
10832;BME280;5469;48.574;8.768;2023-01-27T01:40:16;94931.88;;;0.09;76.98
10832;BME280;5469;48.574;8.768;2023-01-27T01:42:54;94937.09;;;0.03;77.04
10832;BME280;5469;48.574;8.768;2023-01-27T01:45:43;94937.91;;;-0.04;77.12
10832;BME280;5469;48.574;8.768;2023-01-27T01:48:22;94933.50;;;-0.03;77.39
10832;BME280;5469;48.574;8.768;2023-01-27T01:51:02;94928.50;;;-0.05;76.92
10832;BME280;5469;48.574;8.768;2023-01-27T01:53:41;94928.31;;;-0.30;77.02
10832;BME280;5469;48.574;8.768;2023-01-27T01:56:19;94928.69;;;0.01;77.50
10832;BME280;5469;48.574;8.768;2023-01-27T01:58:55;94926.72;;;-0.37;77.85
10832;BME280;5469;48.574;8.768;2023-01-27T02:01:30;94922.53;;;-0.25;77.41
10832;BME280;5469;48.574;8.768;2023-01-27T02:04:08;94922.69;;;-0.07;77.76
10832;BME280;5469;48.574;8.768;2023-01-27T02:06:48;94919.28;;;-0.14;77.24
10832;BME280;5469;48.574;8.768;2023-01-27T02:09:23;94917.50;;;-0.20;78.64
10832;BME280;5469;48.574;8.768;2023-01-27T02:11:57;94910.28;;;-0.18;77.13
10832;BME280;5469;48.574;8.768;2023-01-27T02:14:31;94905.91;;;-0.31;77.78
10832;BME280;5469;48.574;8.768;2023-01-27T02:17:07;94910.88;;;-0.29;78.25
10832;BME280;5469;48.574;8.768;2023-01-27T02:19:52;94908.69;;;-0.12;78.08
10832;BME280;5469;48.574;8.768;2023-01-27T02:22:34;94908.69;;;-0.32;77.47
10832;BME280;5469;48.574;8.768;2023-01-27T02:25:14;94913.47;;;-0.09;78.10
10832;BME280;5469;48.574;8.768;2023-01-27T02:27:51;94894.31;;;-0.41;78.06
10832;BME280;5469;48.574;8.768;2023-01-27T02:30:24;94905.84;;;-0.11;78.05
10832;BME280;5469;48.574;8.768;2023-01-27T02:32:58;94909.47;;;-0.12;77.49
10832;BME280;5469;48.574;8.768;2023-01-27T02:35:35;94908.69;;;-0.12;77.66
10832;BME280;5469;48.574;8.768;2023-01-27T02:38:10;94905.09;;;-0.45;78.07
10832;BME280;5469;48.574;8.768;2023-01-27T02:40:45;94911.09;;;-0.24;79.08
10832;BME280;5469;48.574;8.768;2023-01-27T02:43:22;94908.88;;;-0.27;78.12
10832;BME280;5469;48.574;8.768;2023-01-27T02:45:55;94905.09;;;-0.25;78.78
10832;BME280;5469;48.574;8.768;2023-01-27T02:48:29;94906.69;;;-0.30;79.03
10832;BME280;5469;48.574;8.768;2023-01-27T02:51:02;94912.09;;;-0.32;78.32
10832;BME280;5469;48.574;8.768;2023-01-27T02:53:36;94910.72;;;-0.48;79.69
10832;BME280;5469;48.574;8.768;2023-01-27T02:56:10;94911.53;;;-0.67;79.64
10832;BME280;5469;48.574;8.768;2023-01-27T02:58:44;94905.91;;;-0.64;79.90
10832;BME280;5469;48.574;8.768;2023-01-27T03:01:18;94899.50;;;-0.28;78.53
10832;BME280;5469;48.574;8.768;2023-01-27T03:03:51;94914.09;;;-0.27;79.06
10832;BME280;5469;48.574;8.768;2023-01-27T03:06:25;94913.50;;;-0.29;79.28
10832;BME280;5469;48.574;8.768;2023-01-27T03:08:58;94905.91;;;-0.31;79.93
10832;BME280;5469;48.574;8.768;2023-01-27T03:11:31;94908.28;;;-0.29;79.47
10832;BME280;5469;48.574;8.768;2023-01-27T03:14:23;94907.88;;;-0.26;79.01
10832;BME280;5469;48.574;8.768;2023-01-27T03:17:14;94910.47;;;-0.26;78.61
10832;BME280;5469;48.574;8.768;2023-01-27T03:20:05;94911.88;;;-0.17;78.95
10832;BME280;5469;48.574;8.768;2023-01-27T03:22:39;94904.28;;;-0.25;79.03
10832;BME280;5469;48.574;8.768;2023-01-27T03:25:12;94909.28;;;-0.17;77.96
10832;BME280;5469;48.574;8.768;2023-01-27T03:27:45;94908.25;;;-0.09;78.22
10832;BME280;5469;48.574;8.768;2023-01-27T03:30:20;94914.69;;;-0.18;78.57
10832;BME280;5469;48.574;8.768;2023-01-27T03:32:53;94913.72;;;-0.37;78.82
10832;BME280;5469;48.574;8.768;2023-01-27T03:35:27;94904.25;;;-0.18;78.98
10832;BME280;5469;48.574;8.768;2023-01-27T03:38:06;94911.50;;;-0.40;78.87
10832;BME280;5469;48.574;8.768;2023-01-27T03:41:02;94915.47;;;-0.05;78.63
10832;BME280;5469;48.574;8.768;2023-01-27T03:43:52;94903.50;;;-0.32;78.72
10832;BME280;5469;48.574;8.768;2023-01-27T03:46:44;94907.69;;;-0.31;79.83
10832;BME280;5469;48.574;8.768;2023-01-27T03:49:18;94904.50;;;-0.33;79.45
10832;BME280;5469;48.574;8.768;2023-01-27T03:51:51;94905.88;;;-0.17;79.19
10832;BME280;5469;48.574;8.768;2023-01-27T03:54:24;94912.72;;;-0.23;78.10
10832;BME280;5469;48.574;8.768;2023-01-27T03:56:58;94903.44;;;-0.06;78.95
10832;BME280;5469;48.574;8.768;2023-01-27T03:59:36;94906.47;;;-0.29;79.04
10832;BME280;5469;48.574;8.768;2023-01-27T04:02:11;94906.88;;;-0.25;80.19
10832;BME280;5469;48.574;8.768;2023-01-27T04:05:02;94901.47;;;-0.17;79.35
10832;BME280;5469;48.574;8.768;2023-01-27T04:07:53;94910.69;;;-0.08;79.04
10832;BME280;5469;48.574;8.768;2023-01-27T04:10:26;94916.69;;;-0.07;78.30
10832;BME280;5469;48.574;8.768;2023-01-27T04:13:00;94912.69;;;-0.10;78.95
10832;BME280;5469;48.574;8.768;2023-01-27T04:15:32;94919.88;;;-0.12;78.45
10832;BME280;5469;48.574;8.768;2023-01-27T04:18:07;94923.91;;;-0.23;79.05
10832;BME280;5469;48.574;8.768;2023-01-27T04:20:41;94930.72;;;-0.15;79.37
10832;BME280;5469;48.574;8.768;2023-01-27T04:23:14;94930.31;;;-0.18;79.70
10832;BME280;5469;48.574;8.768;2023-01-27T04:25:48;94931.34;;;-0.66;80.38
10832;BME280;5469;48.574;8.768;2023-01-27T04:28:24;94931.53;;;-0.28;79.83
10832;BME280;5469;48.574;8.768;2023-01-27T04:30:58;94931.13;;;-0.31;79.63
10832;BME280;5469;48.574;8.768;2023-01-27T04:33:33;94934.13;;;-0.34;80.02
10832;BME280;5469;48.574;8.768;2023-01-27T04:36:07;94932.34;;;-0.20;80.06
10832;BME280;5469;48.574;8.768;2023-01-27T04:38:41;94940.53;;;-0.37;80.50
10832;BME280;5469;48.574;8.768;2023-01-27T04:41:14;94943.56;;;-0.20;79.73
10832;BME280;5469;48.574;8.768;2023-01-27T04:43:47;94935.13;;;-0.22;79.98
10832;BME280;5469;48.574;8.768;2023-01-27T04:46:21;94927.94;;;-0.33;78.86
10832;BME280;5469;48.574;8.768;2023-01-27T04:48:56;94926.50;;;-0.09;79.11
10832;BME280;5469;48.574;8.768;2023-01-27T04:51:29;94931.94;;;-0.17;79.26
10832;BME280;5469;48.574;8.768;2023-01-27T04:54:03;94939.13;;;-0.13;78.43
10832;BME280;5469;48.574;8.768;2023-01-27T04:56:38;94936.34;;;-0.18;79.35
10832;BME280;5469;48.574;8.768;2023-01-27T04:59:12;94934.72;;;-0.19;79.90
10832;BME280;5469;48.574;8.768;2023-01-27T05:01:46;94938.75;;;-0.50;78.89
10832;BME280;5469;48.574;8.768;2023-01-27T05:04:21;94943.97;;;-0.23;80.19
10832;BME280;5469;48.574;8.768;2023-01-27T05:06:55;94942.50;;;-0.06;79.91
10832;BME280;5469;48.574;8.768;2023-01-27T05:09:28;94935.31;;;-0.04;78.65
10832;BME280;5469;48.574;8.768;2023-01-27T05:12:01;94936.75;;;-0.74;78.71
10832;BME280;5469;48.574;8.768;2023-01-27T05:14:35;94924.69;;;-0.09;80.07
10832;BME280;5469;48.574;8.768;2023-01-27T05:17:08;94924.47;;;-0.01;78.00
10832;BME280;5469;48.574;8.768;2023-01-27T05:19:43;94926.31;;;-0.08;77.66
10832;BME280;5469;48.574;8.768;2023-01-27T05:22:16;94930.75;;;-0.28;78.31
10832;BME280;5469;48.574;8.768;2023-01-27T05:24:50;94939.13;;;-0.06;78.94
10832;BME280;5469;48.574;8.768;2023-01-27T05:27:23;94933.50;;;-0.16;78.28
10832;BME280;5469;48.574;8.768;2023-01-27T05:29:56;94931.13;;;-0.25;79.36
10832;BME280;5469;48.574;8.768;2023-01-27T05:32:30;94925.50;;;-0.15;78.23
10832;BME280;5469;48.574;8.768;2023-01-27T05:35:06;94920.31;;;-0.55;77.97
10832;BME280;5469;48.574;8.768;2023-01-27T05:37:39;94935.97;;;-0.41;79.30
10832;BME280;5469;48.574;8.768;2023-01-27T05:40:12;94931.50;;;-0.21;79.36
10832;BME280;5469;48.574;8.768;2023-01-27T05:42:46;94943.94;;;-0.36;78.70
10832;BME280;5469;48.574;8.768;2023-01-27T05:45:19;94948.38;;;-0.57;78.97
10832;BME280;5469;48.574;8.768;2023-01-27T05:47:52;94948.34;;;-0.63;80.06
10832;BME280;5469;48.574;8.768;2023-01-27T05:50:27;94934.34;;;-0.42;79.21
10832;BME280;5469;48.574;8.768;2023-01-27T05:53:01;94948.34;;;-0.37;78.96
10832;BME280;5469;48.574;8.768;2023-01-27T05:55:34;94942.34;;;-0.37;79.11
10832;BME280;5469;48.574;8.768;2023-01-27T05:58:07;94946.75;;;-0.58;79.49
10832;BME280;5469;48.574;8.768;2023-01-27T06:00:41;94953.97;;;-0.60;78.41
10832;BME280;5469;48.574;8.768;2023-01-27T06:03:14;94954.56;;;-0.58;77.48
10832;BME280;5469;48.574;8.768;2023-01-27T06:05:50;94964.78;;;-0.50;79.22
10832;BME280;5469;48.574;8.768;2023-01-27T06:08:25;94968.41;;;-0.37;78.32
10832;BME280;5469;48.574;8.768;2023-01-27T06:10:58;94984.00;;;-0.51;78.39
10832;BME280;5469;48.574;8.768;2023-01-27T06:13:32;94974.00;;;-0.27;77.75
10832;BME280;5469;48.574;8.768;2023-01-27T06:16:08;94981.03;;;-0.28;77.32
10832;BME280;5469;48.574;8.768;2023-01-27T06:18:42;94973.38;;;-0.16;77.05
10832;BME280;5469;48.574;8.768;2023-01-27T06:21:17;94978.00;;;-0.45;78.05
10832;BME280;5469;48.574;8.768;2023-01-27T06:23:51;94970.56;;;-0.68;77.55
10832;BME280;5469;48.574;8.768;2023-01-27T06:26:31;94975.19;;;-0.50;78.06
10832;BME280;5469;48.574;8.768;2023-01-27T06:29:04;94967.97;;;-0.21;77.96
10832;BME280;5469;48.574;8.768;2023-01-27T06:31:37;94961.19;;;-0.22;77.43
10832;BME280;5469;48.574;8.768;2023-01-27T06:34:11;94966.41;;;-0.35;76.76
10832;BME280;5469;48.574;8.768;2023-01-27T06:36:46;94967.41;;;-0.23;77.43
10832;BME280;5469;48.574;8.768;2023-01-27T06:39:19;94965.00;;;-0.18;77.44
10832;BME280;5469;48.574;8.768;2023-01-27T06:41:53;94962.56;;;-0.26;76.85
10832;BME280;5469;48.574;8.768;2023-01-27T06:44:26;94981.19;;;-0.56;77.35
10832;BME280;5469;48.574;8.768;2023-01-27T06:46:59;94979.00;;;-0.46;77.63
10832;BME280;5469;48.574;8.768;2023-01-27T06:49:33;94979.22;;;-0.54;77.42
10832;BME280;5469;48.574;8.768;2023-01-27T06:52:08;94987.41;;;-0.37;77.72
10832;BME280;5469;48.574;8.768;2023-01-27T06:54:41;94993.81;;;-0.59;78.13
10832;BME280;5469;48.574;8.768;2023-01-27T06:57:14;94993.81;;;-0.53;77.69
10832;BME280;5469;48.574;8.768;2023-01-27T06:59:48;94991.63;;;-0.42;76.96
10832;BME280;5469;48.574;8.768;2023-01-27T07:02:21;94988.44;;;-0.38;77.83
10832;BME280;5469;48.574;8.768;2023-01-27T07:04:55;94997.63;;;-0.49;77.93
10832;BME280;5469;48.574;8.768;2023-01-27T07:07:30;94989.63;;;-0.54;77.45
10832;BME280;5469;48.574;8.768;2023-01-27T07:10:04;95002.84;;;-0.29;77.64
10832;BME280;5469;48.574;8.768;2023-01-27T07:12:38;95009.66;;;-0.54;77.33
10832;BME280;5469;48.574;8.768;2023-01-27T07:15:11;95006.44;;;-0.56;78.94
10832;BME280;5469;48.574;8.768;2023-01-27T07:17:45;95010.06;;;-0.37;77.13
10832;BME280;5469;48.574;8.768;2023-01-27T07:20:18;95012.47;;;-0.42;78.11
10832;BME280;5469;48.574;8.768;2023-01-27T07:22:55;95014.25;;;-0.50;77.90
10832;BME280;5469;48.574;8.768;2023-01-27T07:25:30;95024.50;;;-0.28;77.72
10832;BME280;5469;48.574;8.768;2023-01-27T07:28:03;95028.69;;;-0.54;77.80
10832;BME280;5469;48.574;8.768;2023-01-27T07:30:37;95019.66;;;-0.45;78.74
10832;BME280;5469;48.574;8.768;2023-01-27T07:33:11;95030.47;;;-0.48;78.84
10832;BME280;5469;48.574;8.768;2023-01-27T07:35:47;95042.53;;;-0.33;77.62
10832;BME280;5469;48.574;8.768;2023-01-27T07:38:22;95037.31;;;-0.33;78.61
10832;BME280;5469;48.574;8.768;2023-01-27T07:40:56;95046.53;;;-0.24;78.01
10832;BME280;5469;48.574;8.768;2023-01-27T07:43:30;95046.94;;;-0.14;77.35
10832;BME280;5469;48.574;8.768;2023-01-27T07:46:03;95046.53;;;-0.11;77.32
10832;BME280;5469;48.574;8.768;2023-01-27T07:48:36;95044.13;;;-0.06;77.34
10832;BME280;5469;48.574;8.768;2023-01-27T07:51:11;95054.75;;;-0.01;77.62
10832;BME280;5469;48.574;8.768;2023-01-27T07:53:46;95061.34;;;-0.38;77.90
10832;BME280;5469;48.574;8.768;2023-01-27T07:56:19;95059.75;;;-0.19;77.63
10832;BME280;5469;48.574;8.768;2023-01-27T07:58:53;95059.94;;;-0.40;78.45
10832;BME280;5469;48.574;8.768;2023-01-27T08:01:26;95062.13;;;-0.37;78.66
10832;BME280;5469;48.574;8.768;2023-01-27T08:04:00;95064.16;;;-0.26;78.10
10832;BME280;5469;48.574;8.768;2023-01-27T08:06:33;95061.59;;;-0.13;77.35
10832;BME280;5469;48.574;8.768;2023-01-27T08:09:08;95046.91;;;-0.40;77.70
10832;BME280;5469;48.574;8.768;2023-01-27T08:11:41;95053.72;;;-0.39;77.85
10832;BME280;5469;48.574;8.768;2023-01-27T08:14:14;95056.75;;;-0.16;76.90
10832;BME280;5469;48.574;8.768;2023-01-27T08:16:48;95058.56;;;-0.23;77.13
10832;BME280;5469;48.574;8.768;2023-01-27T08:19:21;95053.56;;;-0.05;76.59
10832;BME280;5469;48.574;8.768;2023-01-27T08:21:55;95060.34;;;-0.30;76.86
10832;BME280;5469;48.574;8.768;2023-01-27T08:24:29;95053.28;;;-0.50;78.16
10832;BME280;5469;48.574;8.768;2023-01-27T08:27:03;95073.00;;;-0.07;77.76
10832;BME280;5469;48.574;8.768;2023-01-27T08:29:36;95073.38;;;-0.30;77.41
10832;BME280;5469;48.574;8.768;2023-01-27T08:32:10;95068.19;;;-0.17;77.71
10832;BME280;5469;48.574;8.768;2023-01-27T08:34:43;95069.94;;;-0.37;76.81
10832;BME280;5469;48.574;8.768;2023-01-27T08:37:16;95079.41;;;-0.10;78.17
10832;BME280;5469;48.574;8.768;2023-01-27T08:39:51;95076.59;;;-0.22;76.35
10832;BME280;5469;48.574;8.768;2023-01-27T08:42:25;95080.59;;;-0.39;76.40
10832;BME280;5469;48.574;8.768;2023-01-27T08:44:58;95086.59;;;-0.38;77.23
10832;BME280;5469;48.574;8.768;2023-01-27T08:47:32;95076.19;;;-0.25;77.42
10832;BME280;5469;48.574;8.768;2023-01-27T08:50:06;95089.03;;;-0.10;77.14
10832;BME280;5469;48.574;8.768;2023-01-27T08:52:40;95091.44;;;-0.09;77.01
10832;BME280;5469;48.574;8.768;2023-01-27T08:55:15;95088.97;;;-0.43;78.02
10832;BME280;5469;48.574;8.768;2023-01-27T08:57:48;95089.38;;;-0.40;77.27
10832;BME280;5469;48.574;8.768;2023-01-27T09:00:22;95088.59;;;-0.27;77.14
10832;BME280;5469;48.574;8.768;2023-01-27T09:02:55;95088.00;;;-0.16;77.32
10832;BME280;5469;48.574;8.768;2023-01-27T09:05:29;95092.31;;;-0.63;77.87
10832;BME280;5469;48.574;8.768;2023-01-27T09:08:02;95096.19;;;-0.46;77.82
10832;BME280;5469;48.574;8.768;2023-01-27T09:10:38;95097.78;;;-0.31;77.04
10832;BME280;5469;48.574;8.768;2023-01-27T09:13:12;95095.84;;;-0.09;77.07
10832;BME280;5469;48.574;8.768;2023-01-27T09:15:49;95096.25;;;-0.06;76.59
10832;BME280;5469;48.574;8.768;2023-01-27T09:18:23;95086.22;;;0.05;77.12
10832;BME280;5469;48.574;8.768;2023-01-27T09:20:56;95087.00;;;-0.28;77.32
10832;BME280;5469;48.574;8.768;2023-01-27T09:23:30;95087.81;;;-0.21;77.45
10832;BME280;5469;48.574;8.768;2023-01-27T09:26:05;95091.84;;;0.15;76.37
10832;BME280;5469;48.574;8.768;2023-01-27T09:28:38;95090.25;;;0.14;76.44
10832;BME280;5469;48.574;8.768;2023-01-27T09:31:11;95087.03;;;-0.02;76.16
10832;BME280;5469;48.574;8.768;2023-01-27T09:33:45;95077.00;;;0.22;76.52
10832;BME280;5469;48.574;8.768;2023-01-27T09:36:19;95086.22;;;-0.22;77.63
10832;BME280;5469;48.574;8.768;2023-01-27T09:38:56;95088.22;;;-0.11;76.05
10832;BME280;5469;48.574;8.768;2023-01-27T09:41:56;95094.25;;;0.10;76.59
10832;BME280;5469;48.574;8.768;2023-01-27T09:44:45;95082.22;;;0.35;76.79
10832;BME280;5469;48.574;8.768;2023-01-27T09:47:37;95084.63;;;0.17;75.52
10832;BME280;5469;48.574;8.768;2023-01-27T09:50:24;95094.66;;;0.07;76.14
10832;BME280;5469;48.574;8.768;2023-01-27T09:53:19;95091.44;;;0.18;76.59
10832;BME280;5469;48.574;8.768;2023-01-27T09:56:00;95096.44;;;0.13;76.66
10832;BME280;5469;48.574;8.768;2023-01-27T09:58:51;95094.25;;;0.36;76.88
10832;BME280;5469;48.574;8.768;2023-01-27T10:01:32;95083.00;;;0.03;76.59
10832;BME280;5469;48.574;8.768;2023-01-27T10:04:21;95093.44;;;0.03;77.11
10832;BME280;5469;48.574;8.768;2023-01-27T10:07:09;95081.81;;;-0.02;76.98
10832;BME280;5469;48.574;8.768;2023-01-27T10:10:02;95087.44;;;0.09;77.03
10832;BME280;5469;48.574;8.768;2023-01-27T10:12:49;95081.84;;;0.18;77.48
10832;BME280;5469;48.574;8.768;2023-01-27T10:15:37;95091.84;;;0.02;76.80
10832;BME280;5469;48.574;8.768;2023-01-27T10:18:28;95088.84;;;0.31;76.87
10832;BME280;5469;48.574;8.768;2023-01-27T10:21:12;95097.47;;;-0.02;77.56
10832;BME280;5469;48.574;8.768;2023-01-27T10:23:57;95095.63;;;-0.21;78.69
10832;BME280;5469;48.574;8.768;2023-01-27T10:26:37;95101.66;;;-0.14;78.50
10832;BME280;5469;48.574;8.768;2023-01-27T10:29:16;95112.69;;;0.28;77.86
10832;BME280;5469;48.574;8.768;2023-01-27T10:31:56;95118.28;;;-0.15;77.69
10832;BME280;5469;48.574;8.768;2023-01-27T10:34:34;95110.69;;;-0.10;77.79
10832;BME280;5469;48.574;8.768;2023-01-27T10:37:16;95114.91;;;0.25;76.67
10832;BME280;5469;48.574;8.768;2023-01-27T10:39:59;95109.88;;;0.23;77.33
10832;BME280;5469;48.574;8.768;2023-01-27T10:42:37;95109.31;;;0.21;76.86
10832;BME280;5469;48.574;8.768;2023-01-27T10:45:23;95104.66;;;0.23;77.50
10832;BME280;5469;48.574;8.768;2023-01-27T10:51:08;95103.09;;;0.29;76.96
10832;BME280;5469;48.574;8.768;2023-01-27T10:53:49;95103.06;;;0.22;77.87
10832;BME280;5469;48.574;8.768;2023-01-27T10:56:31;95100.25;;;0.04;77.04
10832;BME280;5469;48.574;8.768;2023-01-27T10:59:13;95093.88;;;0.26;77.61
10832;BME280;5469;48.574;8.768;2023-01-27T11:01:52;95097.03;;;0.28;76.72
10832;BME280;5469;48.574;8.768;2023-01-27T11:04:33;95087.84;;;0.32;77.36
10832;BME280;5469;48.574;8.768;2023-01-27T11:07:13;95093.84;;;0.13;77.12
10832;BME280;5469;48.574;8.768;2023-01-27T11:09:54;95098.63;;;0.49;76.48
10832;BME280;5469;48.574;8.768;2023-01-27T11:12:31;95097.47;;;0.25;77.71
10832;BME280;5469;48.574;8.768;2023-01-27T11:15:16;95095.25;;;0.35;78.60
10832;BME280;5469;48.574;8.768;2023-01-27T11:17:52;95086.81;;;0.33;77.50
10832;BME280;5469;48.574;8.768;2023-01-27T11:20:32;95101.88;;;0.31;78.15
10832;BME280;5469;48.574;8.768;2023-01-27T11:23:13;95102.25;;;0.41;77.60
10832;BME280;5469;48.574;8.768;2023-01-27T11:25:53;95101.88;;;0.38;78.93
10832;BME280;5469;48.574;8.768;2023-01-27T11:28:34;95101.47;;;0.21;78.83
10832;BME280;5469;48.574;8.768;2023-01-27T11:31:21;95095.63;;;0.59;77.90
10832;BME280;5469;48.574;8.768;2023-01-27T11:33:59;95098.63;;;0.56;76.95
10832;BME280;5469;48.574;8.768;2023-01-27T11:36:37;95091.34;;;0.84;77.03
10832;BME280;5469;48.574;8.768;2023-01-27T11:39:11;95095.84;;;0.37;78.02
10832;BME280;5469;48.574;8.768;2023-01-27T11:41:49;95089.00;;;0.63;76.72
10832;BME280;5469;48.574;8.768;2023-01-27T11:44:28;95088.16;;;0.82;76.45
10832;BME280;5469;48.574;8.768;2023-01-27T11:47:05;95085.00;;;0.60;76.24
10832;BME280;5469;48.574;8.768;2023-01-27T11:49:43;95085.41;;;0.57;76.56
10832;BME280;5469;48.574;8.768;2023-01-27T11:52:22;95089.13;;;0.95;76.79
10832;BME280;5469;48.574;8.768;2023-01-27T11:55:04;95090.59;;;0.64;75.91
10832;BME280;5469;48.574;8.768;2023-01-27T11:57:42;95093.00;;;0.59;77.16
10832;BME280;5469;48.574;8.768;2023-01-27T12:00:20;95090.59;;;0.64;76.52
10832;BME280;5469;48.574;8.768;2023-01-27T12:03:12;95079.38;;;0.43;77.12
10832;BME280;5469;48.574;8.768;2023-01-27T12:05:53;95078.19;;;0.53;77.09
10832;BME280;5469;48.574;8.768;2023-01-27T12:08:43;95074.97;;;0.51;76.26
10832;BME280;5469;48.574;8.768;2023-01-27T12:11:19;95065.25;;;0.84;75.93
10832;BME280;5469;48.574;8.768;2023-01-27T12:13:55;95068.13;;;0.63;76.35
10832;BME280;5469;48.574;8.768;2023-01-27T12:16:41;95049.25;;;0.74;76.46
10832;BME280;5469;48.574;8.768;2023-01-27T12:19:22;95062.13;;;0.62;76.10
10832;BME280;5469;48.574;8.768;2023-01-27T12:21:59;95057.66;;;0.70;75.74
10832;BME280;5469;48.574;8.768;2023-01-27T12:24:38;95058.88;;;0.67;75.91
10832;BME280;5469;48.574;8.768;2023-01-27T12:27:19;95061.75;;;0.46;76.90
10832;BME280;5469;48.574;8.768;2023-01-27T12:29:55;95060.91;;;0.65;77.41
10832;BME280;5469;48.574;8.768;2023-01-27T12:32:36;95056.47;;;0.72;76.44
10832;BME280;5469;48.574;8.768;2023-01-27T12:35:19;95052.69;;;0.68;77.32
10832;BME280;5469;48.574;8.768;2023-01-27T12:37:56;95061.72;;;0.59;75.73
10832;BME280;5469;48.574;8.768;2023-01-27T12:40:33;95048.88;;;0.64;75.74
10832;BME280;5469;48.574;8.768;2023-01-27T12:43:11;95051.94;;;0.28;77.44
10832;BME280;5469;48.574;8.768;2023-01-27T12:46:02;95046.03;;;0.72;76.49
10832;BME280;5469;48.574;8.768;2023-01-27T12:48:44;95050.41;;;0.85;75.54
10832;BME280;5469;48.574;8.768;2023-01-27T12:51:20;95056.66;;;0.77;75.67
10832;BME280;5469;48.574;8.768;2023-01-27T12:54:13;95066.13;;;0.52;76.20
10832;BME280;5469;48.574;8.768;2023-01-27T12:56:49;95056.91;;;0.62;76.68
10832;BME280;5469;48.574;8.768;2023-01-27T12:59:24;95054.81;;;0.84;75.81
10832;BME280;5469;48.574;8.768;2023-01-27T13:02:00;95067.72;;;0.66;76.46
10832;BME280;5469;48.574;8.768;2023-01-27T13:04:34;95068.75;;;0.65;76.72
10832;BME280;5469;48.574;8.768;2023-01-27T13:07:13;95068.28;;;0.81;75.21
10832;BME280;5469;48.574;8.768;2023-01-27T13:09:49;95063.03;;;0.95;75.50
10832;BME280;5469;48.574;8.768;2023-01-27T13:12:27;95060.06;;;0.78;75.67
10832;BME280;5469;48.574;8.768;2023-01-27T13:15:05;95069.78;;;0.37;76.66
10832;BME280;5469;48.574;8.768;2023-01-27T13:17:43;95062.44;;;0.93;75.90
10832;BME280;5469;48.574;8.768;2023-01-27T13:20:20;95070.47;;;0.91;75.71
10832;BME280;5469;48.574;8.768;2023-01-27T13:23:00;95072.16;;;0.59;75.68
10832;BME280;5469;48.574;8.768;2023-01-27T13:25:37;95077.41;;;0.26;77.17
10832;BME280;5469;48.574;8.768;2023-01-27T13:28:17;95074.63;;;0.01;76.88
10832;BME280;5469;48.574;8.768;2023-01-27T13:30:56;95076.94;;;0.62;76.74
10832;BME280;5469;48.574;8.768;2023-01-27T13:33:36;95073.97;;;0.65;75.92
10832;BME280;5469;48.574;8.768;2023-01-27T13:36:22;95069.63;;;1.04;75.90
10832;BME280;5469;48.574;8.768;2023-01-27T13:39:01;95075.56;;;0.66;75.78
10832;BME280;5469;48.574;8.768;2023-01-27T13:41:42;95071.19;;;0.33;76.08
10832;BME280;5469;48.574;8.768;2023-01-27T13:44:24;95066.97;;;0.32;77.22
10832;BME280;5469;48.574;8.768;2023-01-27T13:47:02;95072.94;;;0.66;76.07
10832;BME280;5469;48.574;8.768;2023-01-27T13:49:40;95074.91;;;0.77;76.26
10832;BME280;5469;48.574;8.768;2023-01-27T13:52:15;95071.75;;;0.49;75.85
10832;BME280;5469;48.574;8.768;2023-01-27T13:54:49;95068.13;;;0.63;76.74
10832;BME280;5469;48.574;8.768;2023-01-27T13:57:36;95075.50;;;0.86;75.64
10832;BME280;5469;48.574;8.768;2023-01-27T14:00:19;95073.50;;;0.81;75.71
10832;BME280;5469;48.574;8.768;2023-01-27T14:03:19;95076.97;;;0.49;75.93
10832;BME280;5469;48.574;8.768;2023-01-27T14:06:06;95074.47;;;0.94;76.11
10832;BME280;5469;48.574;8.768;2023-01-27T14:11:47;95092.16;;;0.85;76.04
10832;BME280;5469;48.574;8.768;2023-01-27T14:14:32;95087.78;;;0.59;76.44